createdAt,value
2016-11-18T00:00:17.894Z,11.95
2016-11-18T00:01:17.979Z,11.97
2016-11-18T00:02:17.907Z,12.04
2016-11-18T00:03:17.998Z,12.01
2016-11-18T00:04:17.991Z,12.03
2016-11-18T00:05:17.931Z,12.08
2016-11-18T00:06:18.001Z,12.1
2016-11-18T00:07:18.086Z,12.03
2016-11-18T00:08:17.915Z,12.18
2016-11-18T00:09:17.941Z,12.2
2016-11-18T00:10:17.954Z,12.25
2016-11-18T00:11:17.936Z,12.23
2016-11-18T00:12:18.006Z,12.2
2016-11-18T00:13:18.021Z,12.18
2016-11-18T00:14:18.007Z,12.16
2016-11-18T00:15:17.953Z,12.03
2016-11-18T00:16:17.953Z,12.04
2016-11-18T00:17:18.101Z,12.03
2016-11-18T00:18:18.026Z,11.89
2016-11-18T00:19:18.030Z,11.85
2016-11-18T00:20:18.104Z,11.86
2016-11-18T00:21:18.061Z,11.86
2016-11-18T00:22:18.039Z,11.75
2016-11-18T00:23:18.034Z,11.81
2016-11-18T00:24:18.084Z,11.76
2016-11-18T00:25:18.132Z,11.73
2016-11-18T00:26:18.071Z,11.79
2016-11-18T00:27:18.128Z,11.89
2016-11-18T00:28:18.058Z,11.7
2016-11-18T00:29:17.996Z,11.82
2016-11-18T00:30:17.989Z,11.85
2016-11-18T00:31:18.072Z,11.75
2016-11-18T00:32:17.993Z,11.7
2016-11-18T00:33:18.070Z,11.66
2016-11-18T00:34:18.096Z,11.76
2016-11-18T00:35:18.159Z,11.91
2016-11-18T00:36:18.084Z,11.98
2016-11-18T00:37:18.103Z,12
2016-11-18T00:38:18.004Z,11.91
2016-11-18T00:39:18.091Z,11.95
2016-11-18T00:40:18.161Z,11.98
2016-11-18T00:41:18.085Z,11.95
2016-11-18T00:42:18.113Z,11.98
2016-11-18T00:43:18.102Z,12.01
2016-11-18T00:44:18.098Z,11.94
2016-11-18T00:45:18.020Z,12.1
2016-11-18T00:46:18.031Z,12.07
2016-11-18T00:47:18.181Z,12.05
2016-11-18T00:48:18.114Z,12.18
2016-11-18T00:49:18.197Z,12.25
2016-11-18T00:50:18.116Z,12.18
2016-11-18T00:51:18.121Z,12.15
2016-11-18T00:52:18.125Z,12.2
2016-11-18T00:53:18.148Z,12.08
2016-11-18T00:54:18.119Z,11.33
2016-11-18T00:55:18.173Z,10.65
2016-11-18T00:56:18.067Z,10.08
2016-11-18T00:57:18.147Z,9.8
2016-11-18T00:58:18.168Z,9.63
2016-11-18T00:59:18.210Z,9.47
2016-11-18T01:00:18.076Z,9.45
2016-11-18T01:01:18.144Z,9.27
2016-11-18T01:02:18.075Z,9.12
2016-11-18T01:03:18.238Z,8.98
2016-11-18T01:04:18.227Z,9.04
2016-11-18T01:05:18.159Z,9.03
2016-11-18T01:06:18.164Z,8.9
2016-11-18T01:07:18.083Z,8.83
2016-11-18T01:08:18.165Z,8.82
2016-11-18T01:09:18.189Z,8.69
2016-11-18T01:10:18.176Z,8.71
2016-11-18T01:11:18.473Z,8.72
2016-11-18T01:12:18.184Z,8.65
2016-11-18T01:13:18.097Z,8.68
2016-11-18T01:14:18.187Z,8.64
2016-11-18T01:15:18.268Z,8.67
2016-11-18T01:16:18.268Z,8.67
2016-11-18T01:17:18.271Z,8.61
2016-11-18T01:18:18.239Z,8.65
2016-11-18T01:19:18.286Z,8.57
2016-11-18T01:20:18.127Z,8.61
2016-11-18T01:21:18.188Z,8.67
2016-11-18T01:22:18.279Z,8.65
2016-11-18T01:23:18.214Z,8.62
2016-11-18T01:24:18.220Z,8.62
2016-11-18T01:25:18.305Z,8.53
2016-11-18T01:26:18.340Z,8.53
2016-11-18T01:27:18.240Z,8.52
2016-11-18T01:28:18.213Z,8.47
2016-11-18T01:29:18.312Z,8.4
2016-11-18T01:30:18.240Z,8.42
2016-11-18T01:31:18.248Z,8.52
2016-11-18T01:32:18.320Z,8.44
2016-11-18T01:33:18.225Z,8.4
2016-11-18T01:34:18.237Z,8.44
2016-11-18T01:35:18.322Z,8.35
2016-11-18T01:36:18.230Z,8.39
2016-11-18T01:37:18.258Z,8.36
2016-11-18T01:38:18.247Z,8.4
2016-11-18T01:39:18.341Z,8.39
2016-11-18T01:40:18.259Z,8.42
2016-11-18T01:41:18.367Z,8.39
2016-11-18T01:42:18.261Z,8.39
2016-11-18T01:43:18.269Z,8.4
2016-11-18T01:44:18.278Z,8.43
2016-11-18T01:45:18.345Z,8.34
2016-11-18T01:46:18.214Z,8.36
2016-11-18T01:47:18.261Z,8.43
2016-11-18T01:48:18.274Z,8.42
2016-11-18T01:49:18.360Z,8.46
2016-11-18T01:50:18.229Z,8.35
2016-11-18T01:51:18.219Z,8.43
2016-11-18T01:52:18.366Z,8.42
2016-11-18T01:53:18.293Z,8.35
2016-11-18T01:54:18.375Z,8.42
2016-11-18T01:55:18.307Z,8.25
2016-11-18T01:56:18.372Z,8.39
2016-11-18T01:57:18.351Z,8.36
2016-11-18T01:58:18.313Z,8.31
2016-11-18T01:59:18.383Z,8.26
2016-11-18T02:00:18.317Z,8.35
2016-11-18T02:01:18.246Z,8.28
2016-11-18T02:02:18.404Z,8.32
2016-11-18T02:03:18.258Z,8.29
2016-11-18T02:04:18.330Z,8.29
2016-11-18T02:05:18.254Z,8.43
2016-11-18T02:06:18.321Z,8.42
2016-11-18T02:07:18.259Z,8.42
2016-11-18T02:08:18.258Z,8.39
2016-11-18T02:09:18.260Z,8.29
2016-11-18T02:10:18.262Z,8.32
2016-11-18T02:11:18.425Z,8.34
2016-11-18T02:12:18.334Z,8.29
2016-11-18T02:13:18.352Z,8.44
2016-11-18T02:14:18.422Z,8.32
2016-11-18T02:15:18.352Z,8.4
2016-11-18T02:16:18.283Z,8.36
2016-11-18T02:17:18.364Z,8.31
2016-11-18T02:18:18.375Z,8.42
2016-11-18T02:19:18.357Z,8.34
2016-11-18T02:20:18.445Z,8.28
2016-11-18T02:21:18.294Z,8.4
2016-11-18T02:22:18.399Z,8.42
2016-11-18T02:23:18.302Z,8.32
2016-11-18T02:24:18.456Z,8.31
2016-11-18T02:25:18.304Z,8.31
2016-11-18T02:26:18.389Z,8.31
2016-11-18T02:27:18.372Z,8.26
2016-11-18T02:28:18.494Z,8.26
2016-11-18T02:29:18.345Z,8.34
2016-11-18T02:30:18.394Z,8.32
2016-11-18T02:31:18.402Z,8.25
2016-11-18T02:32:18.327Z,8.19
2016-11-18T02:33:18.473Z,8.24
2016-11-18T02:34:18.427Z,8.31
2016-11-18T02:35:20.231Z,8.28
2016-11-18T02:36:18.698Z,8.34
2016-11-18T02:37:18.362Z,8.14
2016-11-18T02:38:18.412Z,8.22
2016-11-18T02:39:18.423Z,8.24
2016-11-18T02:40:18.411Z,8.32
2016-11-18T02:41:18.353Z,8.25
2016-11-18T02:42:18.385Z,8.17
2016-11-18T02:43:18.445Z,8.1
2016-11-18T02:44:18.436Z,8.19
2016-11-18T02:45:18.372Z,8.25
2016-11-18T02:46:18.510Z,8.24
2016-11-18T02:47:18.438Z,8.22
2016-11-18T02:48:18.376Z,8.24
2016-11-18T02:49:18.544Z,8.22
2016-11-18T02:50:18.531Z,8.07
2016-11-18T02:51:18.449Z,8.06
2016-11-18T02:52:18.450Z,8.04
2016-11-18T02:53:18.451Z,8.09
2016-11-18T02:54:18.464Z,8.17
2016-11-18T02:55:18.397Z,8.19
2016-11-18T02:56:18.464Z,8.09
2016-11-18T02:57:18.477Z,8.13
2016-11-18T02:58:18.391Z,8.17
2016-11-18T02:59:18.473Z,8.07
2016-11-18T03:00:18.475Z,8.16
2016-11-18T03:01:18.581Z,8.1
2016-11-18T03:02:18.488Z,8.06
2016-11-18T03:03:18.558Z,8.1
2016-11-18T03:04:18.416Z,8.06
2016-11-18T03:05:18.498Z,8.16
2016-11-18T03:06:18.580Z,8.07
2016-11-18T03:07:18.503Z,8.1
2016-11-18T03:08:18.574Z,8.1
2016-11-18T03:09:18.424Z,8.01
2016-11-18T03:10:18.502Z,8.1
2016-11-18T03:11:18.585Z,8.04
2016-11-18T03:12:18.531Z,8.11
2016-11-18T03:13:18.511Z,7.98
2016-11-18T03:14:18.515Z,8.07
2016-11-18T03:15:18.519Z,8.04
2016-11-18T03:16:18.511Z,7.95
2016-11-18T03:17:18.547Z,8.13
2016-11-18T03:18:18.523Z,8.11
2016-11-18T03:19:18.528Z,8.01
2016-11-18T03:20:18.533Z,7.96
2016-11-18T03:21:18.547Z,7.93
2016-11-18T03:22:18.481Z,8.07
2016-11-18T03:23:18.535Z,8.01
2016-11-18T03:24:18.635Z,7.98
2016-11-18T03:25:18.618Z,8.09
2016-11-18T03:26:18.614Z,7.98
2016-11-18T03:27:18.546Z,7.99
2016-11-18T03:28:18.488Z,7.99
2016-11-18T03:29:18.554Z,8.09
2016-11-18T03:30:18.555Z,8.07
2016-11-18T03:31:18.483Z,8.04
2016-11-18T03:32:18.492Z,7.98
2016-11-18T03:33:18.597Z,8.06
2016-11-18T03:34:18.565Z,7.93
2016-11-18T03:35:18.572Z,7.98
2016-11-18T03:36:18.508Z,7.93
2016-11-18T03:37:18.575Z,7.98
2016-11-18T03:38:18.522Z,7.85
2016-11-18T03:39:18.593Z,7.88
2016-11-18T03:40:18.587Z,7.85
2016-11-18T03:41:18.575Z,7.96
2016-11-18T03:42:18.659Z,7.8
2016-11-18T03:43:18.510Z,7.95
2016-11-18T03:44:18.533Z,7.92
2016-11-18T03:45:18.544Z,7.89
2016-11-18T03:46:18.600Z,7.88
2016-11-18T03:47:18.531Z,7.83
2016-11-18T03:48:18.644Z,7.89
2016-11-18T03:49:18.607Z,7.85
2016-11-18T03:50:18.678Z,7.77
2016-11-18T03:51:18.539Z,7.88
2016-11-18T03:52:18.633Z,7.85
2016-11-18T03:53:18.615Z,7.91
2016-11-18T03:54:18.631Z,7.85
2016-11-18T03:55:18.691Z,7.75
2016-11-18T03:56:18.561Z,7.73
2016-11-18T03:57:18.573Z,7.82
2016-11-18T03:58:18.616Z,7.93
2016-11-18T03:59:18.712Z,7.82
2016-11-18T04:00:18.647Z,7.77
2016-11-18T04:01:18.642Z,7.78
2016-11-18T04:02:18.716Z,7.77
2016-11-18T04:03:18.648Z,7.77
2016-11-18T04:04:18.613Z,7.77
2016-11-18T04:05:18.604Z,7.64
2016-11-18T04:06:18.648Z,7.88
2016-11-18T04:07:18.700Z,7.8
2016-11-18T04:08:18.588Z,7.8
2016-11-18T04:09:18.664Z,7.86
2016-11-18T04:10:18.690Z,7.83
2016-11-18T04:11:18.661Z,7.83
2016-11-18T04:12:18.696Z,7.82
2016-11-18T04:13:18.693Z,7.75
2016-11-18T04:14:18.677Z,7.8
2016-11-18T04:15:18.684Z,7.7
2016-11-18T04:16:18.592Z,7.77
2016-11-18T04:17:18.689Z,7.75
2016-11-18T04:18:18.759Z,7.7
2016-11-18T04:19:18.760Z,7.68
2016-11-18T04:20:18.699Z,7.68
2016-11-18T04:21:18.718Z,7.59
2016-11-18T04:22:18.768Z,7.67
2016-11-18T04:23:18.713Z,7.7
2016-11-18T04:24:18.779Z,7.64
2016-11-18T04:25:18.707Z,7.61
2016-11-18T04:26:18.640Z,7.64
2016-11-18T04:27:18.647Z,7.64
2016-11-18T04:28:18.785Z,7.7
2016-11-18T04:29:18.793Z,7.56
2016-11-18T04:30:18.796Z,7.44
2016-11-18T04:31:18.720Z,7.45
2016-11-18T04:32:18.714Z,7.26
2016-11-18T04:33:18.820Z,7.37
2016-11-18T04:34:18.815Z,7.27
2016-11-18T04:35:18.745Z,7.3
2016-11-18T04:36:18.744Z,7.18
2016-11-18T04:37:18.839Z,7.11
2016-11-18T04:38:18.665Z,7.19
2016-11-18T04:39:18.748Z,7.01
2016-11-18T04:40:18.761Z,6.97
2016-11-18T04:41:18.779Z,6.91
2016-11-18T04:42:19.016Z,6.9
2016-11-18T04:43:18.684Z,6.76
2016-11-18T04:44:18.833Z,6.91
2016-11-18T04:45:18.683Z,6.82
2016-11-18T04:46:18.764Z,6.79
2016-11-18T04:47:18.773Z,6.82
2016-11-18T04:48:18.723Z,6.73
2016-11-18T04:49:18.781Z,6.68
2016-11-18T04:50:18.781Z,6.76
2016-11-18T04:51:18.784Z,6.64
2016-11-18T04:52:18.783Z,6.58
2016-11-18T04:53:18.804Z,6.61
2016-11-18T04:54:18.862Z,6.6
2016-11-18T04:55:18.713Z,6.6
2016-11-18T04:56:18.793Z,6.52
2016-11-18T04:57:18.731Z,6.49
2016-11-18T04:58:18.744Z,6.55
2016-11-18T04:59:18.878Z,6.6
2016-11-18T05:00:18.813Z,6.54
2016-11-18T05:01:18.823Z,6.47
2016-11-18T05:02:18.776Z,6.49
2016-11-18T05:03:18.893Z,6.44
2016-11-18T05:04:18.830Z,6.43
2016-11-18T05:05:18.814Z,6.44
2016-11-18T05:06:18.807Z,6.43
2016-11-18T05:07:18.901Z,6.39
2016-11-18T05:08:18.857Z,6.24
2016-11-18T05:09:18.924Z,6.29
2016-11-18T05:10:18.771Z,6.25
2016-11-18T05:11:18.849Z,6.31
2016-11-18T05:12:18.771Z,6.25
2016-11-18T05:13:18.858Z,6.28
2016-11-18T05:14:18.787Z,6.21
2016-11-18T05:15:18.847Z,6.26
2016-11-18T05:16:18.813Z,6.21
2016-11-18T05:17:18.875Z,6.24
2016-11-18T05:18:18.864Z,6.2
2016-11-18T05:19:18.785Z,6.17
2016-11-18T05:20:18.854Z,5.99
2016-11-18T05:21:18.786Z,6.15
2016-11-18T05:22:18.871Z,6.05
2016-11-18T05:23:18.936Z,6.02
2016-11-18T05:24:18.944Z,6.05
2016-11-18T05:25:18.952Z,6.06
2016-11-18T05:26:18.805Z,5.99
2016-11-18T05:27:18.821Z,5.99
2016-11-18T05:28:18.968Z,5.99
2016-11-18T05:29:18.884Z,6
2016-11-18T05:30:18.896Z,5.96
2016-11-18T05:31:18.836Z,5.81
2016-11-18T05:32:18.898Z,5.99
2016-11-18T05:33:18.895Z,5.92
2016-11-18T05:34:18.975Z,5.89
2016-11-18T05:35:18.979Z,5.92
2016-11-18T05:36:18.842Z,5.82
2016-11-18T05:37:18.836Z,5.96
2016-11-18T05:38:18.859Z,5.92
2016-11-18T05:39:18.835Z,5.8
2016-11-18T05:40:19.004Z,5.88
2016-11-18T05:41:18.880Z,5.89
2016-11-18T05:42:18.925Z,5.78
2016-11-18T05:43:19.014Z,5.87
2016-11-18T05:44:18.954Z,5.92
2016-11-18T05:45:18.951Z,5.82
2016-11-18T05:46:18.896Z,5.88
2016-11-18T05:47:18.867Z,5.95
2016-11-18T05:48:18.946Z,5.99
2016-11-18T05:49:18.946Z,5.91
2016-11-18T05:50:18.867Z,5.96
2016-11-18T05:51:18.960Z,5.92
2016-11-18T05:52:18.878Z,5.87
2016-11-18T05:53:18.888Z,5.84
2016-11-18T05:54:18.888Z,5.73
2016-11-18T05:55:18.955Z,5.88
2016-11-18T05:56:18.964Z,5.81
2016-11-18T05:57:19.069Z,5.78
2016-11-18T05:58:18.892Z,5.78
2016-11-18T05:59:18.888Z,5.87
2016-11-18T06:00:18.977Z,5.91
2016-11-18T06:01:18.898Z,5.78
2016-11-18T06:02:18.936Z,5.88
2016-11-18T06:03:18.920Z,5.8
2016-11-18T06:04:18.991Z,5.82
2016-11-18T06:05:24.884Z,5.75
2016-11-18T06:06:18.912Z,5.85
2016-11-18T06:07:19.027Z,5.8
2016-11-18T06:08:18.915Z,5.78
2016-11-18T06:09:18.919Z,5.81
2016-11-18T06:10:18.922Z,5.91
2016-11-18T06:11:18.946Z,5.8
2016-11-18T06:12:18.924Z,5.96
2016-11-18T06:13:18.960Z,5.78
2016-11-18T06:14:18.937Z,5.85
2016-11-18T06:15:18.929Z,5.77
2016-11-18T06:16:19.024Z,5.81
2016-11-18T06:17:19.034Z,5.77
2016-11-18T06:18:19.029Z,5.77
2016-11-18T06:19:19.027Z,5.75
2016-11-18T06:20:19.033Z,5.73
2016-11-18T06:21:19.022Z,5.72
2016-11-18T06:22:19.106Z,5.87
2016-11-18T06:23:18.969Z,5.7
2016-11-18T06:24:18.963Z,5.78
2016-11-18T06:25:19.121Z,5.77
2016-11-18T06:26:19.155Z,5.8
2016-11-18T06:27:19.048Z,5.67
2016-11-18T06:28:19.044Z,5.69
2016-11-18T06:29:19.078Z,5.73
2016-11-18T06:30:19.050Z,5.72
2016-11-18T06:31:18.977Z,5.8
2016-11-18T06:32:19.087Z,5.85
2016-11-18T06:33:19.068Z,5.75
2016-11-18T06:34:19.079Z,5.78
2016-11-18T06:35:18.996Z,5.81
2016-11-18T06:36:19.023Z,5.85
2016-11-18T06:37:19.011Z,5.8
2016-11-18T06:38:19.141Z,5.77
2016-11-18T06:39:19.156Z,5.87
2016-11-18T06:40:19.012Z,5.95
2016-11-18T06:41:19.040Z,5.84
2016-11-18T06:42:19.081Z,5.87
2016-11-18T06:43:19.160Z,5.8
2016-11-18T06:44:19.198Z,5.81
2016-11-18T06:45:19.120Z,5.85
2016-11-18T06:46:19.095Z,5.87
2016-11-18T06:47:19.141Z,5.87
2016-11-18T06:48:19.041Z,5.98
2016-11-18T06:49:19.114Z,5.92
2016-11-18T06:50:19.195Z,5.82
2016-11-18T06:51:19.111Z,6.26
2016-11-18T06:52:19.047Z,5.88
2016-11-18T06:53:19.121Z,5.89
2016-11-18T06:54:19.232Z,5.8
2016-11-18T06:55:19.049Z,5.85
2016-11-18T06:56:19.055Z,5.92
2016-11-18T06:57:19.144Z,5.84
2016-11-18T06:58:19.083Z,5.82
2016-11-18T06:59:19.132Z,5.89
2016-11-18T07:00:19.071Z,5.84
2016-11-18T07:01:19.238Z,5.84
2016-11-18T07:02:19.182Z,5.88
2016-11-18T07:03:19.072Z,5.85
2016-11-18T07:04:19.224Z,5.95
2016-11-18T07:05:19.168Z,5.85
2016-11-18T07:06:19.193Z,5.82
2016-11-18T07:07:19.151Z,5.87
2016-11-18T07:08:19.171Z,5.91
2016-11-18T07:09:19.262Z,5.89
2016-11-18T07:10:19.226Z,5.91
2016-11-18T07:11:19.267Z,5.81
2016-11-18T07:12:19.102Z,5.89
2016-11-18T07:13:19.244Z,5.85
2016-11-18T07:14:19.096Z,5.85
2016-11-18T07:15:19.178Z,5.8
2016-11-18T07:16:19.220Z,5.8
2016-11-18T07:17:19.339Z,5.87
2016-11-18T07:18:19.213Z,5.8
2016-11-18T07:19:19.128Z,5.8
2016-11-18T07:20:19.190Z,5.81
2016-11-18T07:21:19.125Z,5.82
2016-11-18T07:22:19.191Z,5.82
2016-11-18T07:23:19.218Z,5.82
2016-11-18T07:24:19.220Z,5.77
2016-11-18T07:25:19.159Z,5.85
2016-11-18T07:26:19.301Z,5.82
2016-11-18T07:27:19.317Z,5.81
2016-11-18T07:28:19.217Z,5.87
2016-11-18T07:29:19.357Z,5.78
2016-11-18T07:30:19.185Z,5.78
2016-11-18T07:31:19.159Z,5.84
2016-11-18T07:32:19.233Z,5.78
2016-11-18T07:33:19.319Z,5.95
2016-11-18T07:34:19.232Z,5.89
2016-11-18T07:35:19.266Z,5.81
2016-11-18T07:36:19.311Z,5.91
2016-11-18T07:37:19.273Z,5.8
2016-11-18T07:38:19.467Z,5.85
2016-11-18T07:39:19.178Z,5.98
2016-11-18T07:40:19.242Z,5.85
2016-11-18T07:41:19.310Z,5.81
2016-11-18T07:42:19.326Z,5.75
2016-11-18T07:43:19.349Z,5.82
2016-11-18T07:44:19.206Z,5.89
2016-11-18T07:45:19.344Z,5.85
2016-11-18T07:46:19.373Z,5.82
2016-11-18T07:47:19.277Z,5.96
2016-11-18T07:48:19.483Z,5.98
2016-11-18T07:49:19.226Z,5.98
2016-11-18T07:50:19.320Z,6.05
2016-11-18T07:51:19.363Z,5.99
2016-11-18T07:52:19.582Z,5.89
2016-11-18T07:53:19.229Z,5.89
2016-11-18T07:54:19.322Z,6.05
2016-11-18T07:55:19.382Z,6.05
2016-11-18T07:56:19.311Z,5.99
2016-11-18T07:57:19.394Z,6.03
2016-11-18T07:58:19.360Z,5.99
2016-11-18T07:59:19.221Z,5.92
2016-11-18T08:00:19.357Z,6.02
2016-11-18T08:01:19.317Z,6
2016-11-18T08:02:19.230Z,6.07
2016-11-18T08:03:19.392Z,6.02
2016-11-18T08:04:19.506Z,6.09
2016-11-18T08:05:19.644Z,6.09
2016-11-18T08:06:20.601Z,6.09
2016-11-18T08:07:19.336Z,6.05
2016-11-18T08:08:19.257Z,6.15
2016-11-18T08:09:19.388Z,6.2
2016-11-18T08:10:19.454Z,6.24
2016-11-18T08:11:19.642Z,6.33
2016-11-18T08:12:19.711Z,6.29
2016-11-18T08:13:19.473Z,6.26
2016-11-18T08:14:19.800Z,6.31
2016-11-18T08:15:19.488Z,6.34
2016-11-18T08:16:19.478Z,6.25
2016-11-18T08:17:19.579Z,6.2
2016-11-18T08:18:19.730Z,6.26
2016-11-18T08:19:21.743Z,6.17
2016-11-18T08:20:20.640Z,6.33
2016-11-18T08:21:19.747Z,6.42
2016-11-18T08:22:19.311Z,6.44
2016-11-18T08:23:19.414Z,6.55
2016-11-18T08:24:19.728Z,6.52
2016-11-18T08:25:19.593Z,6.6
2016-11-18T08:26:19.362Z,6.7
2016-11-18T08:27:19.355Z,6.75
2016-11-18T08:28:19.489Z,6.94
2016-11-18T08:29:19.315Z,7.04
2016-11-18T08:30:19.539Z,7.11
2016-11-18T08:31:19.543Z,7.22
2016-11-18T08:32:19.624Z,7.15
2016-11-18T08:33:19.346Z,7.21
2016-11-18T08:34:19.738Z,7.23
2016-11-18T08:35:19.568Z,7.21
2016-11-18T08:36:19.456Z,7.3
2016-11-18T08:37:19.531Z,7.49
2016-11-18T08:38:19.578Z,7.48
2016-11-18T08:39:19.557Z,7.63
2016-11-18T08:40:19.510Z,7.54
2016-11-18T08:41:19.454Z,7.49
2016-11-18T08:42:19.686Z,7.55
2016-11-18T08:43:19.500Z,7.78
2016-11-18T08:44:19.594Z,7.77
2016-11-18T08:45:19.521Z,7.8
2016-11-18T08:46:19.625Z,7.74
2016-11-18T08:47:19.554Z,7.78
2016-11-18T08:48:19.694Z,7.77
2016-11-18T08:49:19.451Z,7.86
2016-11-18T08:50:21.899Z,7.95
2016-11-18T08:51:19.453Z,7.99
2016-11-18T08:52:19.562Z,7.83
2016-11-18T08:53:19.670Z,7.91
2016-11-18T08:54:19.525Z,7.77
2016-11-18T08:55:19.382Z,7.85
2016-11-18T08:56:19.671Z,7.92
2016-11-18T08:57:19.535Z,7.83
2016-11-18T08:58:19.590Z,7.83
2016-11-18T08:59:19.565Z,7.89
2016-11-18T09:00:19.487Z,7.78
2016-11-18T09:01:19.514Z,7.92
2016-11-18T09:02:19.677Z,7.86
2016-11-18T09:03:19.762Z,7.86
2016-11-18T09:04:19.418Z,7.93
2016-11-18T09:05:20.364Z,7.88
2016-11-18T09:06:19.518Z,8.03
2016-11-18T09:07:19.546Z,8.01
2016-11-18T09:08:19.516Z,7.93
2016-11-18T09:09:19.456Z,7.99
2016-11-18T09:10:19.467Z,7.99
2016-11-18T09:11:19.510Z,8.1
2016-11-18T09:12:19.725Z,8.07
2016-11-18T09:13:19.674Z,8.1
2016-11-18T09:14:19.522Z,8.03
2016-11-18T09:15:19.777Z,8.07
2016-11-18T09:16:19.701Z,8.11
2016-11-18T09:17:19.478Z,8.17
2016-11-18T09:18:19.639Z,8.39
2016-11-18T09:19:19.645Z,8.35
2016-11-18T09:20:19.572Z,8.29
2016-11-18T09:21:19.517Z,8.29
2016-11-18T09:22:19.534Z,8.32
2016-11-18T09:23:19.643Z,8.26
2016-11-18T09:24:19.555Z,8.29
2016-11-18T09:25:19.616Z,8.24
2016-11-18T09:26:19.719Z,8.21
2016-11-18T09:27:19.555Z,8.32
2016-11-18T09:28:19.592Z,8.36
2016-11-18T09:29:19.663Z,8.29
2016-11-18T09:30:19.909Z,8.26
2016-11-18T09:31:19.592Z,8.26
2016-11-18T09:32:19.579Z,8.35
2016-11-18T09:33:19.531Z,8.25
2016-11-18T09:34:19.643Z,8.36
2016-11-18T09:35:19.574Z,8.32
2016-11-18T09:36:19.538Z,8.31
2016-11-18T09:37:19.544Z,8.31
2016-11-18T09:38:19.678Z,8.34
2016-11-18T09:39:19.672Z,8.32
2016-11-18T09:40:19.533Z,8.39
2016-11-18T09:41:19.930Z,8.29
2016-11-18T09:42:19.668Z,8.39
2016-11-18T09:43:19.731Z,8.36
2016-11-18T09:44:19.520Z,8.35
2016-11-18T09:45:19.617Z,8.4
2016-11-18T09:46:19.725Z,8.4
2016-11-18T09:47:19.763Z,8.36
2016-11-18T09:48:19.744Z,8.44
2016-11-18T09:49:19.704Z,8.44
2016-11-18T09:50:19.814Z,8.61
2016-11-18T09:51:19.859Z,8.64
2016-11-18T09:52:20.430Z,8.62
2016-11-18T09:53:19.631Z,8.67
2016-11-18T09:54:19.573Z,8.64
2016-11-18T09:55:19.645Z,8.62
2016-11-18T09:56:19.847Z,8.69
2016-11-18T09:57:19.600Z,8.71
2016-11-18T09:58:19.628Z,8.77
2016-11-18T09:59:19.621Z,8.77
2016-11-18T10:00:19.653Z,8.86
2016-11-18T10:01:19.746Z,8.83
2016-11-18T10:02:20.390Z,8.82
2016-11-18T10:03:19.678Z,8.72
2016-11-18T10:04:19.752Z,8.74
2016-11-18T10:05:19.676Z,8.67
2016-11-18T10:06:19.893Z,8.72
2016-11-18T10:07:19.897Z,8.68
2016-11-18T10:08:19.725Z,8.72
2016-11-18T10:09:19.700Z,8.74
2016-11-18T10:10:19.697Z,8.74
2016-11-18T10:11:19.777Z,8.8
2016-11-18T10:12:19.619Z,8.8
2016-11-18T10:13:19.741Z,8.82
2016-11-18T10:14:19.912Z,8.87
2016-11-18T10:15:19.620Z,9.01
2016-11-18T10:16:19.908Z,8.9
2016-11-18T10:17:19.736Z,8.97
2016-11-18T10:18:19.702Z,9.05
2016-11-18T10:19:19.698Z,9
2016-11-18T10:20:19.723Z,9.08
2016-11-18T10:21:19.885Z,9.03
2016-11-18T10:22:19.701Z,9.12
2016-11-18T10:23:19.826Z,9.21
2016-11-18T10:24:20.123Z,9.37
2016-11-18T10:25:19.733Z,9.48
2016-11-18T10:26:19.785Z,9.41
2016-11-18T10:27:19.700Z,9.23
2016-11-18T10:28:19.846Z,9.35
2016-11-18T10:29:20.001Z,9.27
2016-11-18T10:30:19.844Z,9.14
2016-11-18T10:31:19.835Z,9.21
2016-11-18T10:32:21.322Z,9.19
2016-11-18T10:33:19.751Z,9.17
2016-11-18T10:34:19.797Z,9.09
2016-11-18T10:35:19.703Z,9.23
2016-11-18T10:36:19.884Z,9.26
2016-11-18T10:37:19.680Z,9.34
2016-11-18T10:38:19.849Z,9.32
2016-11-18T10:39:20.415Z,9.44
2016-11-18T10:40:19.981Z,9.3
2016-11-18T10:41:19.699Z,9.45
2016-11-18T10:42:19.842Z,9.44
2016-11-18T10:43:19.826Z,9.62
2016-11-18T10:44:19.844Z,9.41
2016-11-18T10:45:19.849Z,9.45
2016-11-18T10:46:19.732Z,9.34
2016-11-18T10:47:19.779Z,9.27
2016-11-18T10:48:19.951Z,9.12
2016-11-18T10:49:19.916Z,9.08
2016-11-18T10:50:20.237Z,9.21
2016-11-18T10:51:20.383Z,9.32
2016-11-18T10:52:20.375Z,9.24
2016-11-18T10:53:19.993Z,9.57
2016-11-18T10:54:20.561Z,9.67
2016-11-18T10:55:20.205Z,9.74
2016-11-18T10:56:19.848Z,10.05
2016-11-18T10:57:19.891Z,9.93
2016-11-18T10:58:19.924Z,10.07
2016-11-18T10:59:19.828Z,10.17
2016-11-18T11:00:19.930Z,10.14
2016-11-18T11:01:19.841Z,10.11
2016-11-18T11:02:19.773Z,9.98
2016-11-18T11:03:19.896Z,9.88
2016-11-18T11:04:19.983Z,9.85
2016-11-18T11:05:19.850Z,9.88
2016-11-18T11:06:19.858Z,9.81
2016-11-18T11:07:19.916Z,9.6
2016-11-18T11:08:19.784Z,9.59
2016-11-18T11:09:19.853Z,9.45
2016-11-18T11:10:22.427Z,9.41
2016-11-18T11:11:19.895Z,9.3
2016-11-18T11:12:19.959Z,9.32
2016-11-18T11:13:20.145Z,9.21
2016-11-18T11:14:19.901Z,9.11
2016-11-18T11:15:19.871Z,9.2
2016-11-18T11:16:20.059Z,9.12
2016-11-18T11:17:19.884Z,9.21
2016-11-18T11:18:19.982Z,9.17
2016-11-18T11:19:20.103Z,9.12
2016-11-18T11:20:19.951Z,9.01
2016-11-18T11:21:19.966Z,9.12
2016-11-18T11:22:20.002Z,9.3
2016-11-18T11:23:19.838Z,9.34
2016-11-18T11:24:19.976Z,9.3
2016-11-18T11:25:19.975Z,9.21
2016-11-18T11:26:19.913Z,9.14
2016-11-18T11:27:20.871Z,9.12
2016-11-18T11:28:19.906Z,9.11
2016-11-18T11:29:19.865Z,9.08
2016-11-18T11:30:20.084Z,9.05
2016-11-18T11:31:20.007Z,9.09
2016-11-18T11:32:20.072Z,9.23
2016-11-18T11:33:20.051Z,9.09
2016-11-18T11:34:20.245Z,9.03
2016-11-18T11:35:20.082Z,8.98
2016-11-18T11:36:20.094Z,9.16
2016-11-18T11:37:20.013Z,9.12
2016-11-18T11:38:19.950Z,9.11
2016-11-18T11:39:19.944Z,8.97
2016-11-18T11:40:19.971Z,9.04
2016-11-18T11:41:20.089Z,9.12
2016-11-18T11:42:20.052Z,9.11
2016-11-18T11:43:20.131Z,9.08
2016-11-18T11:44:20.076Z,9.17
2016-11-18T11:45:20.096Z,9.27
2016-11-18T11:46:20.091Z,9.24
2016-11-18T11:47:19.957Z,9.39
2016-11-18T11:48:20.189Z,9.48
2016-11-18T11:49:19.957Z,9.62
2016-11-18T11:50:20.034Z,9.82
2016-11-18T11:51:20.000Z,9.67
2016-11-18T11:52:19.947Z,9.88
2016-11-18T11:53:20.306Z,9.95
2016-11-18T11:54:20.040Z,10.11
2016-11-18T11:55:20.025Z,9.98
2016-11-18T11:56:19.908Z,9.81
2016-11-18T11:57:20.217Z,10.05
2016-11-18T11:58:19.925Z,10.13
2016-11-18T11:59:20.135Z,10.02
2016-11-18T12:00:20.131Z,9.8
2016-11-18T12:01:20.061Z,9.98
2016-11-18T12:02:20.160Z,10.13
2016-11-18T12:03:20.031Z,9.66
2016-11-18T12:04:20.070Z,9.62
2016-11-18T12:05:20.068Z,9.71
2016-11-18T12:06:20.019Z,10.2
2016-11-18T12:07:19.967Z,10.14
2016-11-18T12:08:20.003Z,10.17
2016-11-18T12:09:20.808Z,10.17
2016-11-18T12:10:20.470Z,10.21
2016-11-18T12:11:20.427Z,10.31
2016-11-18T12:12:20.580Z,10.23
2016-11-18T12:13:20.484Z,10.28
2016-11-18T12:14:20.087Z,10.2
2016-11-18T12:15:20.050Z,10.08
2016-11-18T12:16:20.160Z,10.18
2016-11-18T12:17:20.099Z,10.29
2016-11-18T12:18:20.147Z,10.2
2016-11-18T12:19:20.128Z,10.52
2016-11-18T12:20:20.262Z,10.66
2016-11-18T12:21:20.885Z,10.52
2016-11-18T12:22:20.211Z,10.32
2016-11-18T12:23:20.336Z,10.57
2016-11-18T12:24:20.162Z,10.2
2016-11-18T12:25:20.808Z,10.13
2016-11-18T12:26:20.522Z,9.99
2016-11-18T12:27:20.416Z,9.99
2016-11-18T12:28:20.531Z,9.85
2016-11-18T12:29:20.091Z,9.67
2016-11-18T12:30:20.766Z,9.59
2016-11-18T12:31:20.180Z,9.66
2016-11-18T12:32:20.111Z,9.52
2016-11-18T12:33:20.143Z,9.45
2016-11-18T12:34:20.066Z,9.64
2016-11-18T12:35:20.141Z,9.59
2016-11-18T12:36:20.218Z,9.47
2016-11-18T12:37:20.236Z,9.48
2016-11-18T12:38:20.178Z,9.41
2016-11-18T12:39:20.189Z,9.48
2016-11-18T12:40:20.837Z,9.72
2016-11-18T12:41:20.142Z,9.74
2016-11-18T12:42:21.001Z,9.48
2016-11-18T12:43:20.156Z,9.64
2016-11-18T12:44:20.276Z,9.88
2016-11-18T12:45:21.126Z,9.82
2016-11-18T12:46:20.129Z,9.81
2016-11-18T12:47:20.144Z,9.75
2016-11-18T12:48:20.254Z,9.57
2016-11-18T12:49:20.097Z,9.63
2016-11-18T12:50:20.230Z,9.62
2016-11-18T12:51:20.442Z,9.6
2016-11-18T12:52:20.342Z,9.77
2016-11-18T12:53:20.183Z,9.77
2016-11-18T12:54:20.236Z,9.6
2016-11-18T12:55:20.302Z,9.62
2016-11-18T12:56:20.189Z,9.77
2016-11-18T12:57:20.072Z,9.77
2016-11-18T12:58:20.538Z,9.59
2016-11-18T12:59:20.423Z,9.56
2016-11-18T13:00:20.990Z,9.74
2016-11-18T13:01:20.351Z,9.9
2016-11-18T13:02:20.266Z,9.8
2016-11-18T13:03:20.125Z,9.6
2016-11-18T13:04:20.397Z,9.8
2016-11-18T13:05:20.722Z,9.77
2016-11-18T13:06:20.331Z,9.8
2016-11-18T13:07:20.855Z,9.74
2016-11-18T13:08:22.074Z,9.88
2016-11-18T13:09:20.199Z,9.85
2016-11-18T13:10:20.288Z,9.64
2016-11-18T13:11:20.144Z,9.56
2016-11-18T13:12:20.921Z,9.74
2016-11-18T13:13:20.192Z,9.72
2016-11-18T13:14:20.106Z,9.78
2016-11-18T13:15:20.299Z,9.64
2016-11-18T13:16:20.606Z,9.71
2016-11-18T13:17:20.781Z,9.66
2016-11-18T13:18:20.793Z,9.71